createdAt,value
2023-03-22T00:01:14.115Z,7.20
2023-03-22T00:03:16.477Z,7.93
2023-03-22T00:05:18.141Z,6.90
2023-03-22T00:07:19.889Z,6.90
2023-03-22T00:09:21.598Z,6.70
2023-03-22T00:11:24.930Z,7.10
2023-03-22T00:13:26.679Z,6.70
2023-03-22T00:15:28.351Z,6.63
2023-03-22T00:17:29.969Z,6.93
2023-03-22T00:19:31.761Z,7.07
2023-03-22T00:21:33.439Z,7.17
2023-03-22T00:23:35.043Z,7.00
2023-03-22T00:25:36.824Z,7.25
2023-03-22T00:27:39.942Z,7.53
2023-03-22T00:29:41.804Z,7.40
2023-03-22T00:31:43.594Z,7.30
2023-03-22T00:33:45.179Z,7.23
2023-03-22T00:35:51.679Z,6.90
2023-03-22T00:37:53.357Z,7.93
2023-03-22T00:39:54.901Z,6.23
2023-03-22T00:41:56.504Z,7.10
2023-03-22T00:43:59.528Z,7.63
2023-03-22T00:46:01.209Z,8.07
2023-03-22T00:48:02.859Z,7.68
2023-03-22T00:50:06.440Z,7.37
2023-03-22T00:52:08.050Z,6.90
2023-03-22T00:54:09.628Z,7.23
2023-03-22T00:56:12.201Z,8.20
2023-03-22T00:58:13.757Z,7.10
2023-03-22T01:00:17.840Z,6.60
2023-03-22T01:02:19.910Z,7.57
2023-03-22T01:04:21.592Z,6.90
2023-03-22T01:06:23.193Z,7.10
2023-03-22T01:08:24.809Z,7.07
2023-03-22T01:10:26.624Z,6.77
2023-03-22T01:12:28.242Z,7.35
2023-03-22T01:14:30.060Z,6.73
2023-03-22T01:16:33.144Z,7.10
2023-03-22T01:18:35.807Z,6.83
2023-03-22T01:20:37.609Z,6.55
2023-03-22T01:22:39.484Z,6.57
2023-03-22T01:24:41.060Z,7.05
2023-03-22T01:26:42.806Z,6.60
2023-03-22T01:28:44.604Z,6.40
2023-03-22T01:30:46.301Z,7.38
2023-03-22T01:32:49.426Z,7.00
2023-03-22T01:34:51.248Z,7.37
2023-03-22T01:36:53.824Z,6.03
2023-03-22T01:38:55.498Z,7.03
2023-03-22T01:40:59.953Z,7.03
2023-03-22T01:43:01.667Z,7.78
2023-03-22T01:45:40.896Z,6.72
2023-03-22T01:47:46.022Z,7.17
2023-03-22T01:49:49.451Z,7.23
2023-03-22T01:51:54.853Z,7.07
2023-03-22T01:54:00.210Z,7.32
2023-03-22T01:56:03.122Z,7.80
2023-03-22T01:58:11.234Z,8.30
2023-03-22T02:00:14.072Z,7.57
2023-03-22T02:02:16.996Z,8.47
2023-03-22T02:04:21.630Z,7.55
2023-03-22T02:06:26.744Z,7.30
2023-03-22T02:08:29.112Z,8.10
2023-03-22T02:10:31.101Z,8.07
2023-03-22T02:12:43.413Z,8.70
2023-03-22T02:15:02.910Z,7.85
2023-03-22T02:17:17.236Z,8.20
2023-03-22T02:19:59.109Z,7.77
2023-03-22T02:22:33.011Z,6.93
2023-03-22T02:24:54.833Z,7.67
2023-03-22T02:27:17.829Z,7.90
2023-03-22T02:29:27.482Z,8.10
2023-03-22T02:31:58.490Z,7.10
2023-03-22T02:34:17.173Z,7.80
2023-03-22T02:36:37.726Z,8.93
2023-03-22T02:39:12.530Z,8.35
2023-03-22T02:41:23.998Z,7.30
2023-03-22T02:43:34.551Z,7.60
2023-03-22T02:45:45.814Z,8.33
2023-03-22T02:47:56.064Z,8.03
2023-03-22T02:50:03.392Z,9.17
2023-03-22T02:52:12.664Z,8.63
2023-03-22T02:54:21.426Z,7.93
2023-03-22T02:56:27.279Z,7.07
2023-03-22T02:58:32.832Z,7.70
2023-03-22T03:00:36.954Z,8.38
2023-03-22T03:02:43.678Z,8.82
2023-03-22T03:04:54.027Z,7.13
2023-03-22T03:07:00.105Z,8.75
2023-03-22T03:09:02.979Z,9.05
2023-03-22T03:11:06.729Z,9.60
2023-03-22T03:13:12.592Z,8.25
2023-03-22T03:15:17.072Z,8.80
2023-03-22T03:17:30.539Z,8.52
2023-03-22T03:19:37.431Z,9.37
2023-03-22T03:21:49.574Z,9.00
2023-03-22T03:24:00.741Z,8.60
2023-03-22T03:26:09.450Z,9.70
2023-03-22T03:28:17.940Z,8.73
2023-03-22T03:30:24.397Z,9.98
2023-03-22T03:32:29.505Z,10.75
2023-03-22T03:34:39.560Z,9.88
2023-03-22T03:36:46.061Z,9.47
2023-03-22T03:38:51.686Z,10.38
2023-03-22T03:40:57.578Z,8.83
2023-03-22T03:43:03.332Z,9.10
2023-03-22T03:45:07.190Z,10.07
2023-03-22T03:47:10.797Z,9.45
2023-03-22T03:49:14.282Z,9.60
2023-03-22T03:51:16.065Z,9.40
2023-03-22T03:53:17.749Z,9.20
2023-03-22T03:55:20.248Z,8.23
2023-03-22T03:57:21.810Z,7.88
2023-03-22T03:59:24.912Z,9.07
2023-03-22T04:01:26.489Z,8.13
2023-03-22T04:03:28.184Z,9.40
2023-03-22T04:05:29.835Z,9.93
2023-03-22T04:07:34.477Z,8.15
2023-03-22T04:09:38.297Z,8.40
2023-03-22T04:11:39.927Z,7.87
2023-03-22T04:13:41.549Z,9.03
2023-03-22T04:15:44.550Z,8.82
2023-03-22T04:17:46.179Z,7.53
2023-03-22T04:19:47.836Z,8.43
2023-03-22T04:21:49.478Z,8.15
2023-03-22T04:23:51.082Z,7.85
2023-03-22T04:25:52.719Z,7.95
2023-03-22T04:27:54.286Z,8.43
2023-03-22T04:29:55.991Z,8.30
2023-03-22T04:31:58.968Z,8.57
2023-03-22T04:34:00.567Z,7.93
2023-03-22T04:36:04.478Z,8.10
2023-03-22T04:38:06.177Z,7.60
2023-03-22T04:40:09.218Z,8.15
2023-03-22T04:42:11.344Z,8.25
2023-03-22T04:44:12.958Z,7.32
2023-03-22T04:46:14.596Z,6.87
2023-03-22T04:48:17.650Z,7.72
2023-03-22T04:50:19.380Z,7.55
2023-03-22T04:52:21.035Z,7.60
2023-03-22T04:54:23.349Z,7.18
2023-03-22T04:56:25.250Z,7.93
2023-03-22T04:58:27.234Z,7.30
2023-03-22T05:00:28.884Z,6.57
2023-03-22T05:02:30.456Z,6.55
2023-03-22T05:04:33.452Z,7.20
2023-03-22T05:06:35.031Z,6.87
2023-03-22T05:08:36.542Z,7.00
2023-03-22T05:10:39.956Z,7.25
2023-03-22T05:12:41.782Z,7.13
2023-03-22T05:14:43.554Z,7.40
2023-03-22T05:16:45.117Z,6.43
2023-03-22T05:18:46.742Z,6.90
2023-03-22T05:20:49.674Z,6.53
2023-03-22T05:22:51.264Z,7.30
2023-03-22T05:24:52.850Z,6.70
2023-03-22T05:26:54.451Z,7.40
2023-03-22T05:28:56.668Z,8.05
2023-03-22T05:30:58.765Z,7.15
2023-03-22T05:33:01.333Z,7.75
2023-03-22T05:35:03.084Z,6.97
2023-03-22T05:37:06.095Z,7.63
2023-03-22T05:39:07.709Z,7.10
2023-03-22T05:41:09.657Z,7.90
2023-03-22T05:43:11.866Z,7.73
2023-03-22T05:45:13.867Z,6.78
2023-03-22T05:47:15.491Z,6.28
2023-03-22T05:49:17.086Z,6.70
2023-03-22T05:51:18.627Z,6.85
2023-03-22T05:53:21.532Z,6.65
2023-03-22T05:55:23.370Z,6.30
2023-03-22T05:57:25.020Z,7.70
2023-03-22T05:59:26.746Z,7.57
2023-03-22T06:01:28.498Z,6.75
2023-03-22T06:03:30.226Z,6.80
2023-03-22T06:05:32.834Z,7.53
2023-03-22T06:07:34.421Z,6.97
2023-03-22T06:09:37.368Z,7.03
2023-03-22T06:11:38.908Z,6.90
2023-03-22T06:13:40.703Z,5.95
2023-03-22T06:15:42.224Z,6.75
2023-03-22T06:17:43.788Z,6.63
2023-03-22T06:19:45.588Z,5.80
2023-03-22T06:21:47.458Z,6.22
2023-03-22T06:23:49.104Z,7.65
2023-03-22T06:25:52.304Z,6.20
2023-03-22T06:27:53.847Z,6.30
2023-03-22T06:29:55.566Z,5.90
2023-03-22T06:31:57.250Z,7.30
2023-03-22T06:33:59.044Z,6.88
2023-03-22T06:36:00.627Z,6.15
2023-03-22T06:38:02.261Z,6.60
2023-03-22T06:40:04.452Z,6.25
2023-03-22T06:42:07.413Z,6.82
2023-03-22T06:44:09.031Z,6.00
2023-03-22T06:46:10.734Z,7.50
2023-03-22T06:48:12.766Z,7.10
2023-03-22T06:50:14.493Z,6.00
2023-03-22T06:52:20.931Z,6.90
2023-03-22T06:54:22.518Z,6.80
2023-03-22T06:56:24.427Z,6.63
2023-03-22T06:58:27.807Z,7.30
2023-03-22T07:00:30.029Z,6.27
2023-03-22T07:02:31.691Z,7.05
2023-03-22T07:04:33.835Z,5.88
2023-03-22T07:06:35.531Z,7.93
2023-03-22T07:08:37.305Z,6.83
2023-03-22T07:10:39.235Z,6.00
2023-03-22T07:12:41.499Z,6.57
2023-03-22T07:14:44.790Z,6.27
2023-03-22T07:16:46.877Z,7.40
2023-03-22T07:18:48.701Z,6.70
2023-03-22T07:20:50.414Z,7.00
2023-03-22T07:22:52.030Z,6.00
2023-03-22T07:24:57.840Z,6.67
2023-03-22T07:27:00.735Z,6.65
2023-03-22T07:29:04.892Z,6.60
2023-03-22T07:31:09.886Z,7.53
2023-03-22T07:33:13.724Z,7.80
2023-03-22T07:35:15.810Z,6.23
2023-03-22T07:37:17.778Z,6.70
2023-03-22T07:39:19.615Z,6.25
2023-03-22T07:41:26.267Z,7.55
2023-03-22T07:43:28.336Z,6.32
2023-03-22T07:45:32.145Z,6.32
2023-03-22T07:47:41.153Z,6.57
2023-03-22T07:49:43.233Z,6.87
2023-03-22T07:51:45.352Z,6.87
2023-03-22T07:53:46.956Z,5.87
2023-03-22T07:55:49.799Z,6.57
2023-03-22T07:57:51.510Z,6.93
2023-03-22T07:59:53.251Z,7.20
2023-03-22T08:01:55.034Z,6.77
2023-03-22T08:03:58.430Z,6.63
2023-03-22T08:06:01.745Z,6.27
2023-03-22T08:08:03.428Z,6.80
2023-03-22T08:10:05.998Z,6.90
2023-03-22T08:12:07.764Z,7.05
2023-03-22T08:14:09.889Z,5.43
2023-03-22T08:16:11.816Z,7.27
2023-03-22T08:18:15.660Z,6.90
2023-03-22T08:20:19.098Z,7.20
2023-03-22T08:22:20.989Z,5.77
2023-03-22T08:24:22.780Z,7.40
2023-03-22T08:26:24.482Z,6.43
2023-03-22T08:28:26.404Z,6.83
2023-03-22T08:30:29.652Z,6.70
2023-03-22T08:32:32.696Z,5.50
2023-03-22T08:34:37.063Z,6.13
2023-03-22T08:36:40.095Z,6.37
2023-03-22T08:38:41.730Z,5.90
2023-03-22T08:40:46.582Z,6.00
2023-03-22T08:42:48.437Z,4.77
2023-03-22T08:44:50.004Z,4.63
2023-03-22T08:46:51.715Z,5.27
2023-03-22T08:48:53.460Z,5.40
2023-03-22T08:50:55.135Z,4.53
2023-03-22T08:52:58.160Z,4.63
2023-03-22T08:54:59.879Z,4.70
2023-03-22T08:57:01.525Z,4.23
2023-03-22T08:59:03.305Z,3.73
2023-03-22T09:01:05.435Z,3.23
2023-03-22T09:03:07.294Z,3.90
2023-03-22T09:05:09.821Z,3.40
2023-03-22T09:07:11.537Z,3.33
2023-03-22T09:09:15.185Z,2.90
2023-03-22T09:11:18.066Z,3.23
2023-03-22T09:13:27.987Z,3.10
2023-03-22T09:15:29.722Z,3.40
2023-03-22T09:17:31.687Z,3.00
2023-03-22T09:19:34.809Z,3.13
2023-03-22T09:21:37.606Z,3.20
2023-03-22T09:23:39.807Z,3.80
2023-03-22T09:25:45.151Z,3.53
2023-03-22T09:27:46.797Z,2.70
2023-03-22T09:29:48.475Z,2.73
2023-03-22T09:31:50.194Z,3.10
2023-03-22T09:33:51.847Z,2.97
2023-03-22T09:35:54.209Z,3.00
2023-03-22T09:37:57.502Z,2.53
2023-03-22T09:39:59.124Z,2.20
2023-03-22T09:42:07.087Z,2.20
2023-03-22T09:44:15.650Z,2.20
2023-03-22T09:46:22.758Z,2.17
2023-03-22T09:48:31.250Z,1.87
2023-03-22T09:50:34.759Z,1.60
2023-03-22T09:52:36.681Z,2.13
2023-03-22T09:54:42.145Z,1.70
2023-03-22T09:56:47.222Z,1.73
2023-03-22T09:58:56.127Z,2.50
2023-03-22T10:01:00.706Z,1.97
2023-03-22T10:03:16.753Z,1.93
2023-03-22T10:05:26.986Z,2.30
2023-03-22T10:07:35.003Z,1.83
2023-03-22T10:09:49.188Z,2.07
2023-03-22T10:11:57.821Z,1.70
2023-03-22T10:14:08.884Z,2.50
2023-03-22T10:16:13.239Z,3.13
2023-03-22T10:18:19.996Z,2.10
2023-03-22T10:20:32.002Z,2.00
2023-03-22T10:22:37.368Z,2.10
2023-03-22T10:24:41.187Z,1.97
2023-03-22T10:26:46.448Z,2.50
2023-03-22T10:28:55.142Z,2.67
2023-03-22T10:30:58.856Z,2.37
2023-03-22T10:33:02.589Z,3.00
2023-03-22T10:35:04.823Z,2.50
2023-03-22T10:37:10.044Z,2.73
2023-03-22T10:39:19.319Z,2.30
2023-03-22T10:41:24.557Z,2.33
2023-03-22T10:43:32.401Z,2.00
2023-03-22T10:45:35.835Z,2.77
2023-03-22T10:47:43.653Z,2.50
2023-03-22T10:49:49.445Z,2.03
2023-03-22T10:51:56.159Z,2.30
2023-03-22T10:53:58.946Z,2.40
2023-03-22T10:56:00.644Z,2.83
2023-03-22T10:58:12.608Z,2.00
2023-03-22T11:00:16.339Z,1.97
2023-03-22T11:02:22.985Z,2.80
2023-03-22T11:04:26.404Z,3.47
2023-03-22T11:06:29.993Z,2.20
2023-03-22T11:08:39.268Z,2.70
2023-03-22T11:10:41.011Z,2.23
2023-03-22T11:12:48.144Z,2.77
2023-03-22T11:14:51.934Z,2.40
2023-03-22T11:16:56.565Z,2.00
2023-03-22T11:19:01.645Z,1.63
2023-03-22T11:21:09.868Z,2.50
2023-03-22T11:23:13.162Z,3.17
2023-03-22T11:25:18.194Z,2.37
2023-03-22T11:27:22.747Z,3.03
2023-03-22T11:29:24.445Z,2.47
2023-03-22T11:31:26.406Z,2.57
2023-03-22T11:33:28.680Z,2.27
2023-03-22T11:35:31.520Z,2.30
2023-03-22T11:37:41.352Z,2.17
2023-03-22T11:39:46.790Z,2.10
2023-03-22T11:41:48.999Z,2.10
2023-03-22T11:43:54.366Z,2.50
2023-03-22T11:45:58.220Z,2.30
2023-03-22T11:48:04.758Z,2.23
2023-03-22T11:50:10.632Z,2.10
2023-03-22T11:52:17.321Z,2.77
2023-03-22T11:54:27.010Z,2.17
2023-03-22T11:56:30.229Z,2.30
2023-03-22T11:58:47.719Z,2.20
2023-03-22T12:00:53.246Z,2.40
2023-03-22T12:02:58.652Z,3.00
2023-03-22T12:05:06.372Z,2.00
2023-03-22T12:07:15.545Z,2.27
2023-03-22T12:09:28.288Z,2.27
2023-03-22T12:11:38.283Z,2.60
2023-03-22T12:13:46.853Z,2.13
2023-03-22T12:15:53.172Z,1.90
2023-03-22T12:18:00.803Z,2.47
2023-03-22T12:20:10.319Z,2.63
2023-03-22T12:22:15.905Z,2.40
2023-03-22T12:24:25.519Z,2.67
2023-03-22T12:26:29.543Z,2.30
2023-03-22T12:28:35.642Z,2.00
2023-03-22T12:30:43.138Z,2.57
2023-03-22T12:32:49.785Z,2.23
2023-03-22T12:34:55.091Z,2.73
2023-03-22T12:37:07.358Z,2.30
2023-03-22T12:39:18.200Z,1.90
2023-03-22T12:41:25.917Z,2.10
2023-03-22T12:43:44.484Z,2.73
2023-03-22T12:45:50.542Z,2.17
2023-03-22T12:48:00.290Z,2.00
2023-03-22T12:50:07.234Z,2.07
2023-03-22T12:52:15.375Z,2.10
2023-03-22T12:54:19.293Z,1.93
2023-03-22T12:56:26.404Z,2.43
2023-03-22T12:58:28.476Z,1.80
2023-03-22T13:00:38.282Z,2.20
2023-03-22T13:02:46.532Z,2.20
2023-03-22T13:04:53.465Z,1.70
2023-03-22T13:06:58.345Z,2.27
2023-03-22T13:09:16.398Z,1.60
2023-03-22T13:11:24.400Z,1.90
2023-03-22T13:13:39.665Z,2.00
2023-03-22T13:15:57.832Z,2.00
2023-03-22T13:17:59.634Z,2.47
2023-03-22T13:20:20.114Z,2.10
2023-03-22T13:22:26.953Z,2.20
2023-03-22T13:24:28.576Z,2.00
2023-03-22T13:26:38.296Z,1.53
2023-03-22T13:28:40.793Z,1.83
2023-03-22T13:30:49.642Z,2.10
2023-03-22T13:32:55.994Z,1.67
2023-03-22T13:34:58.481Z,2.00
2023-03-22T13:37:00.565Z,1.87
2023-03-22T13:39:10.174Z,1.80
2023-03-22T13:41:21.531Z,1.80
2023-03-22T13:43:31.860Z,2.10
2023-03-22T13:45:34.443Z,2.10
2023-03-22T13:47:42.716Z,2.00
2023-03-22T13:49:52.698Z,1.80
2023-03-22T13:52:01.179Z,2.00
2023-03-22T13:54:08.527Z,2.40
2023-03-22T13:56:12.004Z,2.10
2023-03-22T13:58:35.042Z,1.80
2023-03-22T14:00:44.009Z,2.13
2023-03-22T14:02:46.788Z,2.00
2023-03-22T14:04:51.934Z,1.43
2023-03-22T14:06:57.066Z,1.70
2023-03-22T14:09:02.657Z,1.80
2023-03-22T14:11:17.042Z,1.70
2023-03-22T14:13:27.679Z,1.33
2023-03-22T14:15:35.072Z,1.40
2023-03-22T14:17:43.849Z,1.50
2023-03-22T14:19:46.061Z,1.50
